Time;durP1;ratioP1;P1;durP2;ratioP2;P2;SDS_P1;SDS_P2;PMS_P1;PMS_P2;Temp;Humidity;BMP_temperature;BMP_pressure;BME280_temperature;BME280_humidity;BME280_pressure;Samples;Min_cycle;Max_cycle;Signal;HPM_P1;HPM_P2
2021/12/30 00:01:05;;;;;;;22.08;3.25;;;14.30;99.90;;;;;;5031755;28;20486;-70
2021/12/30 00:03:32;;;;;;;18.08;2.67;;;14.30;99.90;;;;;;5032510;28;20432;-70
2021/12/30 00:05:58;;;;;;;20.23;3.47;;;14.30;99.90;;;;;;5031605;28;20037;-71
2021/12/30 00:08:24;;;;;;;19.70;2.97;;;14.30;99.90;;;;;;5032137;28;20478;-71
2021/12/30 00:10:52;;;;;;;24.45;3.53;;;14.30;99.90;;;;;;5031422;28;20079;-70
2021/12/30 00:13:18;;;;;;;18.85;3.10;;;14.30;99.90;;;;;;5031941;28;20029;-70
2021/12/30 00:15:44;;;;;;;21.70;3.10;;;14.30;99.90;;;;;;5031757;28;20025;-71
2021/12/30 00:18:11;;;;;;;23.53;2.83;;;14.30;99.90;;;;;;5031531;28;20452;-70
2021/12/30 00:20:38;;;;;;;19.35;3.17;;;14.30;99.90;;;;;;5031416;28;20625;-70
2021/12/30 00:23:07;;;;;;;;;;;14.40;99.90;;;;;;5031947;28;20030;-70
2021/12/30 00:25:37;;;;;;;19.83;2.95;;;14.40;99.90;;;;;;5031749;28;19941;-70
2021/12/30 00:28:05;;;;;;;21.23;2.60;;;14.40;99.90;;;;;;5031554;28;20029;-70
2021/12/30 00:30:31;;;;;;;20.85;2.50;;;14.40;99.90;;;;;;5031473;28;20080;-70
2021/12/30 00:32:58;;;;;;;22.63;3.75;;;14.40;99.90;;;;;;5031765;28;20410;-70
2021/12/30 00:35:24;;;;;;;19.95;3.55;;;14.40;99.90;;;;;;5032372;28;20037;-70
2021/12/30 00:37:50;;;;;;;18.20;2.60;;;14.50;99.90;;;;;;5035211;28;20415;-70
2021/12/30 00:40:16;;;;;;;21.90;3.20;;;14.60;99.90;;;;;;5035501;28;20743;-71
2021/12/30 00:42:42;;;;;;;20.67;2.93;;;14.70;99.90;;;;;;5035504;28;20124;-70
2021/12/30 00:45:08;;;;;;;14.47;3.43;;;14.70;99.90;;;;;;5035212;28;20787;-71
2021/12/30 00:47:34;;;;;;;21.75;3.20;;;14.80;99.90;;;;;;5035487;28;20378;-70
2021/12/30 00:50:00;;;;;;;18.63;2.45;;;14.80;99.90;;;;;;5035017;28;20017;-70
2021/12/30 00:52:33;;;;;;;17.58;2.45;;;14.80;99.90;;;;;;5034813;28;20026;-70
2021/12/30 00:54:59;;;;;;;18.10;3.50;;;14.70;99.90;;;;;;5035295;28;20037;-70
2021/12/30 00:57:25;;;;;;;19.60;3.03;;;14.70;99.90;;;;;;5017009;28;20539;-69
2021/12/30 00:59:51;;;;;;;18.23;2.70;;;14.70;99.90;;;;;;5035166;28;20025;-70
2021/12/30 01:02:17;;;;;;;16.73;2.90;;;14.70;99.90;;;;;;5034853;28;20026;-71
2021/12/30 01:04:43;;;;;;;24.40;3.03;;;14.60;99.90;;;;;;5034893;28;20033;-70
2021/12/30 01:07:09;;;;;;;24.30;3.57;;;14.50;99.90;;;;;;5035077;28;20271;-71
2021/12/30 01:09:35;;;;;;;26.50;3.77;;;14.50;99.90;;;;;;5034592;28;20029;-70
2021/12/30 01:12:02;;;;;;;28.38;2.97;;;14.50;99.90;;;;;;5034807;28;20029;-70
2021/12/30 01:14:30;;;;;;;22.63;3.58;;;14.50;99.90;;;;;;5034482;28;20339;-70
2021/12/30 01:17:00;;;;;;;20.02;3.15;;;14.40;99.90;;;;;;5034537;28;20072;-70
2021/12/30 01:19:42;;;;;;;19.70;3.10;;;14.50;99.90;;;;;;5034359;28;20112;-70
2021/12/30 01:22:23;;;;;;;25.52;3.95;;;14.40;99.90;;;;;;5034683;28;20022;-71
2021/12/30 01:24:50;;;;;;;25.15;3.35;;;14.40;99.90;;;;;;5034740;28;20050;-70
2021/12/30 01:27:17;;;;;;;22.65;3.28;;;14.50;99.90;;;;;;5034288;28;20052;-71
2021/12/30 01:29:44;;;;;;;23.92;3.45;;;14.40;99.90;;;;;;5034489;28;20029;-71
2021/12/30 01:32:10;;;;;;;19.33;2.53;;;14.50;99.90;;;;;;5034389;28;20105;-70
2021/12/30 01:34:37;;;;;;;16.25;2.85;;;14.50;99.90;;;;;;5016185;28;20037;-71
2021/12/30 01:37:04;;;;;;;17.90;2.85;;;14.40;99.90;;;;;;5034160;28;20100;-71
2021/12/30 01:39:34;;;;;;;17.77;3.38;;;14.40;99.90;;;;;;5034071;28;20037;-72
2021/12/30 01:42:01;;;;;;;15.05;3.20;;;14.30;99.90;;;;;;5033929;28;20044;-69
2021/12/30 01:44:30;;;;;;;;;;;14.30;99.90;;;;;;5034758;28;20037;-71
2021/12/30 01:46:56;;;;;;;18.48;2.92;;;14.30;99.90;;;;;;5032853;28;19905;-70
2021/12/30 01:49:24;;;;;;;17.90;3.10;;;14.30;99.90;;;;;;5033893;28;20025;-70
2021/12/30 01:51:51;;;;;;;20.13;3.03;;;14.30;99.90;;;;;;5033862;28;20022;-70
2021/12/30 01:54:36;;;;;;;18.00;2.35;;;14.20;99.90;;;;;;5033587;28;20106;-70
2021/12/30 01:57:05;;;;;;;20.33;2.83;;;14.10;99.90;;;;;;5049040;28;20025;-71
2021/12/30 01:59:32;;;;;;;20.15;2.55;;;14.10;99.90;;;;;;5033705;28;20032;-71
2021/12/30 02:01:58;;;;;;;15.55;2.70;;;14.10;99.90;;;;;;5033581;28;20052;-70
2021/12/30 02:04:26;;;;;;;20.92;3.28;;;14.10;99.90;;;;;;5033972;28;20029;-70
2021/12/30 02:06:54;;;;;;;18.70;2.70;;;14.10;99.90;;;;;;5015731;28;20114;-70
2021/12/30 02:09:21;;;;;;;17.35;2.97;;;14.10;99.90;;;;;;5033371;28;20029;-70
2021/12/30 02:11:48;;;;;;;20.95;2.55;;;14.10;99.90;;;;;;5033297;28;20417;-70
2021/12/30 02:14:16;;;;;;;20.23;3.08;;;14.10;99.90;;;;;;5033354;28;20549;-70
2021/12/30 02:16:43;;;;;;;18.65;3.30;;;14.10;99.90;;;;;;5033671;28;20454;-71
2021/12/30 02:19:09;;;;;;;;;;;14.10;99.90;;;;;;5033660;28;20033;-70
2021/12/30 02:21:35;;;;;;;18.45;3.15;;;14.10;99.90;;;;;;5015452;28;19912;-70
2021/12/30 02:24:02;;;;;;;22.10;3.47;;;14.10;99.90;;;;;;5015587;28;20377;-71
2021/12/30 02:26:28;;;;;;;17.33;2.55;;;14.10;99.90;;;;;;5033044;28;20021;-70
2021/12/30 02:28:54;;;;;;;16.63;2.60;;;14.10;99.90;;;;;;5033034;28;20056;-70
2021/12/30 02:31:23;;;;;;;15.93;2.97;;;14.00;99.90;;;;;;5033416;28;20029;-70
2021/12/30 02:33:55;;;;;;;14.88;2.38;;;14.00;99.90;;;;;;5032917;28;20033;-70
2021/12/30 02:36:31;;;;;;;18.25;2.67;;;14.00;99.90;;;;;;5032830;28;20096;-69
2021/12/30 02:38:58;;;;;;;17.20;2.88;;;14.00;99.90;;;;;;5015070;28;20029;-70
2021/12/30 02:41:27;;;;;;;16.92;3.25;;;14.00;99.90;;;;;;5032827;28;20461;-70
2021/12/30 02:43:53;;;;;;;26.45;4.18;;;13.90;99.90;;;;;;5033229;28;20025;-70
2021/12/30 02:46:24;;;;;;;14.77;2.90;;;13.90;99.90;;;;;;5033111;28;20032;-70
2021/12/30 02:48:52;;;;;;;27.13;3.88;;;13.80;99.90;;;;;;5032690;28;20420;-70
2021/12/30 02:51:20;;;;;;;19.75;3.33;;;13.80;99.90;;;;;;5032584;28;20434;-69
2021/12/30 02:53:47;;;;;;;18.60;3.25;;;13.70;99.90;;;;;;5032491;28;20083;-69
2021/12/30 02:56:13;;;;;;;19.27;2.58;;;13.70;99.90;;;;;;5033043;28;20049;-70
2021/12/30 02:58:39;;;;;;;26.00;3.50;;;13.70;99.90;;;;;;5014537;28;20120;-69
2021/12/30 03:01:07;;;;;;;25.07;3.77;;;13.60;99.90;;;;;;5014838;28;20040;-69
2021/12/30 03:03:34;;;;;;;18.67;2.90;;;13.60;99.90;;;;;;5032525;28;20397;-70
2021/12/30 03:06:04;;;;;;;20.27;3.47;;;13.60;99.90;;;;;;5033201;28;20018;-70
2021/12/30 03:08:30;;;;;;;24.90;4.10;;;13.70;99.90;;;;;;5032739;28;20037;-70
2021/12/30 03:10:57;;;;;;;20.15;3.85;;;13.70;99.90;;;;;;5032331;28;20155;-71
2021/12/30 03:13:30;;;;;;;15.15;3.63;;;13.80;99.90;;;;;;5032798;28;20094;-71
2021/12/30 03:16:32;;;;;;;18.50;3.30;;;13.80;99.90;;;;;;5033051;28;20032;-71
2021/12/30 03:18:58;;;;;;;15.90;3.33;;;13.80;99.90;;;;;;4971498;28;20043;-71
2021/12/30 03:21:25;;;;;;;16.35;3.50;;;13.80;99.90;;;;;;4971546;28;20369;-70
2021/12/30 03:23:52;;;;;;;;;;;13.80;99.90;;;;;;4971888;28;20039;-70
2021/12/30 03:26:19;;;;;;;19.88;2.75;;;13.80;99.90;;;;;;4971282;28;19910;-70
2021/12/30 03:28:45;;;;;;;19.60;3.67;;;13.80;99.90;;;;;;4971460;28;20499;-70
2021/12/30 03:31:14;;;;;;;20.75;2.80;;;13.80;99.90;;;;;;4971766;28;20052;-71
2021/12/30 03:33:41;;;;;;;24.42;3.10;;;13.80;99.90;;;;;;4971746;28;20039;-70
2021/12/30 03:36:09;;;;;;;16.08;2.75;;;13.80;99.90;;;;;;4971281;28;20126;-70
2021/12/30 03:38:39;;;;;;;17.02;2.25;;;13.80;99.90;;;;;;4971244;28;20094;-70
2021/12/30 03:41:07;;;;;;;21.38;2.70;;;13.80;99.90;;;;;;4971661;28;20031;-71
2021/12/30 03:43:34;;;;;;;23.00;2.40;;;13.90;99.90;;;;;;4971597;28;20023;-71
2021/12/30 03:45:59;;;;;;;;;;;13.90;99.90;;;;;;4972090;28;20487;-71
2021/12/30 03:48:32;;;;;;;20.83;3.03;;;13.90;99.90;;;;;;4971409;28;20080;-70
2021/12/30 03:51:04;;;;;;;15.43;2.38;;;13.90;99.90;;;;;;4971541;28;20038;-70
2021/12/30 03:53:31;;;;;;;19.83;2.95;;;14.00;99.90;;;;;;4977773;28;20031;-70
2021/12/30 03:55:57;;;;;;;20.08;3.10;;;14.10;99.90;;;;;;5032396;28;20139;-71
2021/12/30 03:58:23;;;;;;;21.17;2.80;;;14.10;99.90;;;;;;5031910;28;20022;-71
2021/12/30 04:00:49;;;;;;;17.70;2.87;;;14.10;99.90;;;;;;5031973;28;20105;-70
2021/12/30 04:03:15;;;;;;;18.92;2.45;;;14.00;99.90;;;;;;5014116;28;20386;-71
2021/12/30 04:05:41;;;;;;;17.93;3.10;;;13.90;99.90;;;;;;5031980;28;20464;-71
2021/12/30 04:08:09;;;;;;;19.30;3.42;;;13.90;99.90;;;;;;5032448;28;20320;-70
2021/12/30 04:10:35;;;;;;;12.80;2.45;;;13.80;99.90;;;;;;5033097;28;20080;-71
2021/12/30 04:13:02;;;;;;;16.52;2.90;;;13.70;99.90;;;;;;5035691;28;20026;-70
2021/12/30 04:15:28;;;;;;;23.48;3.70;;;13.70;99.90;;;;;;5017784;28;20440;-69
2021/12/30 04:17:54;;;;;;;15.67;2.73;;;13.70;99.90;;;;;;5018180;28;20026;-72
2021/12/30 04:20:20;;;;;;;19.60;3.08;;;13.60;99.90;;;;;;5036098;28;20374;-70
2021/12/30 04:22:46;;;;;;;15.97;2.83;;;13.60;99.90;;;;;;5035673;28;20017;-71
2021/12/30 04:25:14;;;;;;;19.17;2.80;;;13.60;99.90;;;;;;5017719;28;20087;-70
2021/12/30 04:27:41;;;;;;;19.73;3.10;;;13.50;99.90;;;;;;5035430;28;20017;-70
2021/12/30 04:30:09;;;;;;;15.07;2.53;;;13.60;99.90;;;;;;5035494;28;20044;-71
2021/12/30 04:32:36;;;;;;;16.20;2.90;;;13.60;99.90;;;;;;5035420;28;20025;-71
2021/12/30 04:35:02;;;;;;;18.60;2.97;;;13.60;99.90;;;;;;5035769;28;20029;-70
2021/12/30 04:37:28;;;;;;;14.68;2.72;;;13.70;99.90;;;;;;5035383;28;20034;-70
2021/12/30 04:39:54;;;;;;;17.70;2.50;;;13.70;99.90;;;;;;5035433;28;20029;-71
2021/12/30 04:42:21;;;;;;;17.53;2.67;;;13.70;99.90;;;;;;5035379;28;20029;-70
2021/12/30 04:44:48;;;;;;;14.18;2.38;;;13.70;99.90;;;;;;5035536;28;20025;-70
2021/12/30 04:47:15;;;;;;;15.95;2.40;;;13.70;99.90;;;;;;5035221;28;20033;-70
2021/12/30 04:49:41;;;;;;;;;;;13.60;99.90;;;;;;5035519;28;20104;-71
2021/12/30 04:52:07;;;;;;;14.93;2.22;;;13.60;99.90;;;;;;5035210;28;19909;-71
2021/12/30 04:54:33;;;;;;;20.93;2.90;;;13.60;99.90;;;;;;5035053;28;20552;-71
2021/12/30 04:56:59;;;;;;;19.70;3.73;;;13.50;99.90;;;;;;5035775;28;20721;-71
2021/12/30 04:59:25;;;;;;;12.88;2.42;;;13.50;99.90;;;;;;5050380;28;20029;-70
2021/12/30 05:01:51;;;;;;;17.73;2.87;;;13.50;99.90;;;;;;5018010;28;20345;-70
2021/12/30 05:04:17;;;;;;;20.38;2.70;;;13.50;99.90;;;;;;5034816;28;20048;-70
2021/12/30 05:06:44;;;;;;;12.17;2.47;;;13.60;99.90;;;;;;5035262;28;20063;-70
2021/12/30 05:09:10;;;;;;;19.23;2.47;;;13.50;99.90;;;;;;5017046;28;20344;-71
2021/12/30 05:11:40;;;;;;;15.25;2.95;;;13.60;99.90;;;;;;5034702;28;20054;-70
2021/12/30 05:14:11;;;;;;;16.15;2.25;;;13.60;99.90;;;;;;5034807;28;20112;-70
2021/12/30 05:16:38;;;;;;;18.38;3.13;;;13.60;99.90;;;;;;5034899;28;20482;-70
2021/12/30 05:19:05;;;;;;;17.00;3.05;;;13.60;99.90;;;;;;5034632;28;20026;-70
2021/12/30 05:21:31;;;;;;;25.98;3.65;;;13.60;99.90;;;;;;5016708;28;20029;-70
2021/12/30 05:23:58;;;;;;;21.48;3.50;;;13.50;99.90;;;;;;5034520;28;20052;-70
2021/12/30 05:26:27;;;;;;;20.58;2.50;;;13.50;99.90;;;;;;5034686;28;20025;-70
2021/12/30 05:28:54;;;;;;;16.83;3.20;;;13.60;99.90;;;;;;5034921;28;20436;-71
2021/12/30 05:31:20;;;;;;;17.23;2.72;;;13.60;99.90;;;;;;5034175;28;20029;-70
2021/12/30 05:33:46;;;;;;;16.05;2.70;;;13.60;99.90;;;;;;5034160;28;20032;-71
2021/12/30 05:36:13;;;;;;;17.90;2.33;;;13.50;99.90;;;;;;5034230;28;20029;-70
2021/12/30 05:38:39;;;;;;;16.70;3.07;;;13.50;99.90;;;;;;5034649;28;20481;-70
2021/12/30 05:41:05;;;;;;;18.50;2.70;;;13.50;99.90;;;;;;5034298;28;20275;-69
2021/12/30 05:43:31;;;;;;;17.70;2.57;;;13.50;99.90;;;;;;5016182;28;20049;-69
2021/12/30 05:45:57;;;;;;;21.48;2.70;;;13.50;99.90;;;;;;5038277;28;20022;-69
2021/12/30 05:48:23;;;;;;;19.17;2.92;;;13.40;99.90;;;;;;5034142;28;20056;-69
2021/12/30 05:50:49;;;;;;;20.00;2.83;;;13.40;99.90;;;;;;5034094;28;20026;-69
2021/12/30 05:53:15;;;;;;;22.63;4.00;;;13.30;99.90;;;;;;5034442;28;20317;-70
2021/12/30 05:55:42;;;;;;;20.88;2.78;;;13.30;99.90;;;;;;5016044;28;20042;-70
2021/12/30 05:58:08;;;;;;;18.08;2.67;;;13.30;99.90;;;;;;5033839;28;20021;-67
2021/12/30 06:00:34;;;;;;;20.00;2.78;;;13.40;99.90;;;;;;5015960;28;20375;-74
2021/12/30 06:03:00;;;;;;;15.10;2.47;;;13.40;99.90;;;;;;5032924;28;20021;-69
2021/12/30 06:05:26;;;;;;;14.33;2.20;;;13.50;99.90;;;;;;5034048;28;20025;-68
2021/12/30 06:07:52;;;;;;;17.43;2.77;;;13.50;99.90;;;;;;5033521;28;20498;-68
2021/12/30 06:10:19;;;;;;;14.73;2.60;;;13.40;99.90;;;;;;5033188;28;20049;-67
2021/12/30 06:12:46;;;;;;;19.00;2.78;;;13.40;99.90;;;;;;5033249;28;20032;-68
2021/12/30 06:15:14;;;;;;;11.93;3.13;;;13.40;99.90;;;;;;5015665;28;20090;-67
2021/12/30 06:17:41;;;;;;;14.00;2.72;;;13.40;99.90;;;;;;5015368;28;20033;-72
2021/12/30 06:20:10;;;;;;;18.10;3.25;;;13.40;99.90;;;;;;5033435;28;20029;-72
2021/12/30 06:22:51;;;;;;;22.02;3.38;;;13.40;99.90;;;;;;5015295;28;20057;-72
2021/12/30 06:25:17;;;;;;;14.38;3.38;;;13.40;99.90;;;;;;5033433;28;20060;-72
2021/12/30 06:27:43;;;;;;;18.08;2.67;;;13.40;99.90;;;;;;5033271;28;20071;-72
2021/12/30 06:30:10;;;;;;;18.10;2.90;;;13.30;99.90;;;;;;5033316;28;20030;-72
2021/12/30 06:32:38;;;;;;;17.67;2.40;;;13.30;99.90;;;;;;5032619;28;20494;-71
2021/12/30 06:35:22;;;;;;;14.43;2.47;;;13.30;99.90;;;;;;5032696;28;20029;-72
2021/12/30 06:37:49;;;;;;;12.27;2.20;;;13.40;99.90;;;;;;5032814;28;20021;-73
2021/12/30 06:40:15;;;;;;;19.02;2.17;;;13.50;99.90;;;;;;5032720;28;20026;-72
2021/12/30 06:42:43;;;;;;;13.88;2.55;;;13.70;99.90;;;;;;5033058;28;20040;-73
2021/12/30 06:45:10;;;;;;;22.05;3.20;;;14.10;99.90;;;;;;5032507;28;20037;-71
2021/12/30 06:47:36;;;;;;;19.83;2.85;;;14.40;99.90;;;;;;5032680;28;20036;-73
2021/12/30 06:50:03;;;;;;;11.97;2.20;;;14.60;99.90;;;;;;5033046;28;20032;-75
2021/12/30 06:52:30;;;;;;;16.10;2.90;;;14.80;99.90;;;;;;5032598;28;20032;-72
2021/12/30 06:54:57;;;;;;;17.65;2.50;;;15.20;99.90;;;;;;5032619;28;20055;-72
2021/12/30 06:57:23;;;;;;;15.55;2.60;;;15.60;99.90;;;;;;5032404;28;20025;-73
2021/12/30 06:59:49;;;;;;;14.05;2.50;;;16.00;99.90;;;;;;5032470;28;20037;-72
2021/12/30 07:02:15;;;;;;;14.93;2.60;;;16.20;99.90;;;;;;5032357;28;20037;-71
2021/12/30 07:04:41;;;;;;;15.25;2.70;;;16.60;99.90;;;;;;5032429;28;20022;-71
2021/12/30 07:07:08;;;;;;;17.23;2.30;;;16.80;99.90;;;;;;5032359;28;20368;-72
2021/12/30 07:09:34;;;;;;;;;;;16.70;99.90;;;;;;5032105;28;20462;-71
2021/12/30 07:12:00;;;;;;;12.85;2.45;;;16.80;99.90;;;;;;5032260;28;19923;-72
2021/12/30 07:14:26;;;;;;;12.55;2.03;;;16.80;99.90;;;;;;5032105;28;20037;-71
2021/12/30 07:16:52;;;;;;;12.70;2.45;;;16.60;99.90;;;;;;5031790;28;20029;-71
2021/12/30 07:19:18;;;;;;;13.90;2.70;;;16.60;99.90;;;;;;5032266;28;20021;-73
2021/12/30 07:21:44;;;;;;;14.70;2.50;;;17.00;99.90;;;;;;5031784;28;20048;-72
2021/12/30 07:24:11;;;;;;;13.10;2.83;;;17.20;99.90;;;;;;5013802;28;20481;-71
2021/12/30 07:26:37;;;;;;;11.32;2.60;;;17.30;99.90;;;;;;5032035;28;20346;-71
2021/12/30 07:29:04;;;;;;;15.63;2.25;;;17.60;99.90;;;;;;5031643;28;20018;-71
2021/12/30 07:31:31;;;;;;;8.52;2.25;;;18.50;99.90;;;;;;5031557;28;20485;-70
2021/12/30 07:33:57;;;;;;;16.15;2.80;;;18.40;99.90;;;;;;5031518;28;20029;-71
2021/12/30 07:36:24;;;;;;;16.75;3.17;;;18.80;99.90;;;;;;5031660;28;20022;-71
2021/12/30 07:38:50;;;;;;;12.77;2.30;;;19.50;99.90;;;;;;5031689;28;20457;-71
2021/12/30 07:41:16;;;;;;;13.90;2.70;;;19.90;99.90;;;;;;5031956;28;20029;-69
2021/12/30 07:43:43;;;;;;;10.80;2.03;;;20.60;99.90;;;;;;5031725;28;20460;-71
2021/12/30 07:46:10;;;;;;;10.25;2.03;;;21.20;99.90;;;;;;5034115;28;20043;-71
2021/12/30 07:48:36;;;;;;;13.63;2.28;;;21.70;99.90;;;;;;5035941;28;20053;-71
2021/12/30 07:51:03;;;;;;;13.13;2.70;;;21.40;99.90;;;;;;5035563;28;20033;-71
2021/12/30 07:53:50;;;;;;;14.88;2.70;;;21.00;99.90;;;;;;5035546;28;20382;-71
2021/12/30 07:56:16;;;;;;;10.20;2.42;;;20.30;99.90;;;;;;5035645;28;20052;-70
2021/12/30 07:58:42;;;;;;;17.88;3.22;;;19.50;99.90;;;;;;5035501;28;20481;-71
2021/12/30 08:01:08;;;;;;;15.15;3.50;;;18.90;99.90;;;;;;5035584;28;20045;-71
2021/12/30 08:03:34;;;;;;;12.10;3.17;;;18.80;99.90;;;;;;5035445;28;20029;-71
2021/12/30 08:06:00;;;;;;;15.38;3.22;;;18.70;99.90;;;;;;5034354;28;20094;-70
2021/12/30 08:08:26;;;;;;;12.73;3.80;;;18.60;99.90;;;;;;5033916;28;20056;-71
2021/12/30 08:10:54;;;;;;;15.30;3.92;;;18.50;99.90;;;;;;5031053;28;20072;-70
2021/12/30 08:13:20;;;;;;;14.35;3.97;;;18.50;99.90;;;;;;5035730;28;20028;-70
2021/12/30 08:15:46;;;;;;;14.10;3.47;;;18.60;99.90;;;;;;5035542;28;20045;-70
2021/12/30 08:18:13;;;;;;;16.90;4.10;;;18.50;99.90;;;;;;5035191;28;20024;-70
2021/12/30 08:20:39;;;;;;;;;;;18.10;99.90;;;;;;5035674;28;20103;-71
2021/12/30 08:23:05;;;;;;;11.30;3.25;;;18.10;99.90;;;;;;5035691;28;20361;-70
2021/12/30 08:25:31;;;;;;;16.85;4.63;;;17.80;99.90;;;;;;5035351;28;20327;-72
2021/12/30 08:27:57;;;;;;;17.60;4.07;;;17.60;99.90;;;;;;5035182;28;20029;-72
2021/12/30 08:30:24;;;;;;;15.63;3.78;;;17.40;99.90;;;;;;5035249;28;20094;-72
2021/12/30 08:32:50;;;;;;;12.40;3.47;;;17.60;99.90;;;;;;5035697;28;20073;-71
2021/12/30 08:35:21;;;;;;;13.45;3.53;;;17.50;99.90;;;;;;5034873;28;20160;-71
2021/12/30 08:37:47;;;;;;;14.63;3.60;;;17.60;99.90;;;;;;5035320;28;20018;-71
2021/12/30 08:40:15;;;;;;;;;;;17.80;99.90;;;;;;5035480;28;20026;-70
2021/12/30 08:42:42;;;;;;;15.40;2.83;;;17.90;99.90;;;;;;5034692;28;19905;-71
2021/12/30 08:45:08;;;;;;;;;;;17.70;99.90;;;;;;5035207;28;20053;-73
2021/12/30 08:47:35;;;;;;;12.10;3.03;;;17.90;99.90;;;;;;5034538;28;20000;-70
2021/12/30 08:50:03;;;;;;;13.15;2.75;;;17.80;99.90;;;;;;5034174;28;20025;-71
2021/12/30 08:52:29;;;;;;;14.95;2.95;;;18.00;99.90;;;;;;5034315;28;20040;-70
2021/12/30 08:54:59;;;;;;;14.50;2.75;;;17.80;99.90;;;;;;5034656;28;20037;-70
2021/12/30 08:57:26;;;;;;;11.52;2.28;;;17.70;99.90;;;;;;5033850;28;20365;-70
2021/12/30 08:59:52;;;;;;;16.90;2.47;;;17.60;99.90;;;;;;5034496;28;20025;-72
2021/12/30 09:02:18;;;;;;;16.90;2.85;;;17.30;99.90;;;;;;5034325;28;20026;-72
2021/12/30 09:04:46;;;;;;;16.98;2.80;;;17.40;99.90;;;;;;5034404;28;20493;-72
2021/12/30 09:07:14;;;;;;;17.27;2.45;;;17.20;99.90;;;;;;5017107;28;20369;-71
2021/12/30 09:09:40;;;;;;;12.63;2.63;;;17.30;99.90;;;;;;5034634;28;20026;-71
2021/12/30 09:12:07;;;;;;;14.93;3.00;;;17.40;99.90;;;;;;5014528;28;20065;-71
2021/12/30 09:14:34;;;;;;;20.98;3.70;;;17.40;99.90;;;;;;5014459;28;20045;-71
2021/12/30 09:17:00;;;;;;;14.05;3.15;;;17.50;99.90;;;;;;5014887;28;20018;-72
2021/12/30 09:19:26;;;;;;;12.27;3.58;;;17.60;99.90;;;;;;5014801;28;20026;-71
2021/12/30 09:21:52;;;;;;;18.25;2.47;;;17.50;99.90;;;;;;5014240;28;20164;-71
2021/12/30 09:24:52;;;;;;;14.52;2.75;;;17.50;99.90;;;;;;5014454;28;20022;-71
2021/12/30 09:27:18;;;;;;;11.75;2.53;;;17.60;99.90;;;;;;5014464;28;20029;-71
2021/12/30 09:29:44;;;;;;;11.35;2.90;;;17.60;99.90;;;;;;5014472;28;20359;-72
2021/12/30 09:32:10;;;;;;;12.20;2.50;;;17.70;99.90;;;;;;5012767;28;20029;-71
2021/12/30 09:34:36;;;;;;;11.27;2.50;;;17.60;99.90;;;;;;5014002;28;20140;-71
2021/12/30 09:37:08;;;;;;;12.38;2.55;;;17.70;99.90;;;;;;5013893;28;20427;-74
2021/12/30 09:39:36;;;;;;;10.20;2.35;;;17.70;99.90;;;;;;5014331;28;20029;-71
2021/12/30 09:42:05;;;;;;;13.32;2.33;;;17.70;99.90;;;;;;5013987;28;20037;-67
2021/12/30 09:44:31;;;;;;;13.32;2.70;;;17.70;99.90;;;;;;5013710;28;20034;-70
2021/12/30 09:46:57;;;;;;;18.52;2.47;;;17.80;99.90;;;;;;5013570;28;20526;-68
2021/12/30 09:49:24;;;;;;;18.02;2.80;;;17.70;99.90;;;;;;5013481;28;20501;-69
2021/12/30 09:51:51;;;;;;;15.57;2.85;;;17.60;99.90;;;;;;5013401;28;20037;-68
2021/12/30 09:54:41;;;;;;;10.18;3.00;;;17.50;99.90;;;;;;5013620;28;20502;-70
2021/12/30 09:57:08;;;;;;;10.52;2.63;;;17.60;99.90;;;;;;5013599;28;20116;-68
2021/12/30 09:59:34;;;;;;;11.82;2.40;;;17.50;99.90;;;;;;5013734;28;20383;-68
2021/12/30 10:02:00;;;;;;;10.45;2.75;;;17.50;99.90;;;;;;5013465;28;20030;-69
2021/12/30 10:04:32;;;;;;;12.75;2.95;;;17.50;99.90;;;;;;5013389;28;20084;-70
2021/12/30 10:07:00;;;;;;;11.20;2.80;;;17.40;99.90;;;;;;4995873;28;20055;-69
2021/12/30 10:09:52;;;;;;;12.93;2.65;;;17.40;99.90;;;;;;5013041;28;20018;-67
2021/12/30 10:12:40;;;;;;;13.48;2.60;;;17.40;99.90;;;;;;5013502;28;20088;-70
2021/12/30 10:15:08;;;;;;;13.35;2.08;;;17.50;99.90;;;;;;5013263;28;20038;-69
2021/12/30 10:17:34;;;;;;;13.73;2.53;;;17.70;99.90;;;;;;5012873;28;20030;-69
2021/12/30 10:20:24;;;;;;;14.80;2.60;;;17.70;99.90;;;;;;5013489;28;20026;-69
2021/12/30 10:22:52;;;;;;;13.40;2.35;;;17.90;99.90;;;;;;5013272;28;20378;-69
2021/12/30 10:25:30;;;;;;;15.50;2.78;;;18.00;99.90;;;;;;5013353;28;20021;-69
2021/12/30 10:28:15;;;;;;;14.00;2.55;;;18.10;99.90;;;;;;5012747;28;20377;-68
2021/12/30 10:30:41;;;;;;;12.00;2.38;;;18.10;99.90;;;;;;5013286;28;20113;-69
2021/12/30 10:33:16;;;;;;;13.93;2.42;;;18.00;99.90;;;;;;5012792;28;20017;-69
2021/12/30 10:35:43;;;;;;;11.02;2.40;;;18.10;99.90;;;;;;5012944;28;20137;-67
2021/12/30 10:38:11;;;;;;;12.80;2.58;;;18.20;99.90;;;;;;5012918;28;20032;-70
2021/12/30 10:40:41;;;;;;;15.60;2.88;;;18.30;99.90;;;;;;5012751;28;20026;-69
2021/12/30 10:43:32;;;;;;;12.98;2.50;;;18.40;99.90;;;;;;5013232;28;20065;-71
2021/12/30 10:46:19;;;;;;;9.60;2.28;;;18.40;99.90;;;;;;5013596;28;20446;-70
2021/12/30 10:48:57;;;;;;;9.68;2.03;;;18.30;99.90;;;;;;5011172;28;20022;-69
2021/12/30 10:51:43;;;;;;;13.75;2.30;;;18.20;99.90;;;;;;5012390;28;20080;-69
2021/12/30 10:54:17;;;;;;;18.00;2.85;;;18.30;99.90;;;;;;5011247;28;20101;-69
2021/12/30 10:56:47;;;;;;;14.25;2.85;;;18.30;99.90;;;;;;5012547;28;20022;-69
2021/12/30 10:59:20;;;;;;;11.13;2.28;;;18.50;99.90;;;;;;5012750;28;20446;-69
2021/12/30 11:02:16;;;;;;;15.27;2.50;;;18.60;99.90;;;;;;5012431;28;20026;-69
2021/12/30 11:04:46;;;;;;;17.20;3.20;;;18.80;99.90;;;;;;5012145;28;20053;-69
2021/12/30 11:07:38;;;;;;;17.17;2.40;;;18.70;99.90;;;;;;5012030;28;20014;-70
2021/12/30 11:10:06;;;;;;;10.30;1.95;;;18.80;99.90;;;;;;5015648;28;20125;-70
2021/12/30 11:12:38;;;;;;;11.55;2.00;;;18.80;99.90;;;;;;5032113;28;20059;-70
2021/12/30 11:15:25;;;;;;;9.05;2.33;;;18.90;99.90;;;;;;5031983;28;20043;-69
2021/12/30 11:18:12;;;;;;;13.70;2.17;;;19.10;99.90;;;;;;5013780;28;20071;-70
2021/12/30 11:20:47;;;;;;;11.70;2.28;;;18.90;99.90;;;;;;5031134;28;20045;-70
2021/12/30 11:23:16;;;;;;;14.27;2.25;;;18.70;99.90;;;;;;5031841;28;20030;-70
2021/12/30 11:25:46;;;;;;;8.18;1.70;;;18.80;99.90;;;;;;5031912;28;20018;-70
2021/12/30 11:28:13;;;;;;;14.23;2.10;;;18.50;99.90;;;;;;5031570;28;20025;-70
2021/12/30 11:30:39;;;;;;;9.93;1.98;;;18.50;99.90;;;;;;5013636;28;20029;-70
2021/12/30 11:33:05;;;;;;;10.57;2.08;;;18.60;99.90;;;;;;5031889;28;20470;-70
2021/12/30 11:35:31;;;;;;;15.05;2.75;;;18.70;99.90;;;;;;5031617;28;20033;-70
2021/12/30 11:37:59;;;;;;;14.88;2.10;;;19.00;99.90;;;;;;5031898;28;20032;-70
2021/12/30 11:40:27;;;;;;;12.52;2.10;;;19.10;99.90;;;;;;5031291;28;20033;-70
2021/12/30 11:42:57;;;;;;;10.98;2.20;;;19.00;99.90;;;;;;5031528;28;20037;-70
2021/12/30 11:45:27;;;;;;;10.48;2.08;;;19.10;99.90;;;;;;5031837;28;20440;-70
2021/12/30 11:47:55;;;;;;;8.73;1.80;;;19.20;99.90;;;;;;5031698;28;20147;-70
2021/12/30 11:50:27;;;;;;;8.77;2.42;;;19.10;99.90;;;;;;5031464;28;20090;-70
2021/12/30 11:53:03;;;;;;;14.55;2.58;;;18.90;99.90;;;;;;5031082;28;20021;-70
2021/12/30 11:55:52;;;;;;;12.80;2.45;;;18.90;99.90;;;;;;5031551;28;20088;-70
2021/12/30 11:58:37;;;;;;;11.82;2.58;;;18.80;99.90;;;;;;5031491;28;20207;-71
2021/12/30 12:01:19;;;;;;;10.38;1.88;;;18.80;99.90;;;;;;5031116;28;20038;-70
2021/12/30 12:03:48;;;;;;;9.68;2.10;;;18.80;99.90;;;;;;5031354;28;20436;-73
2021/12/30 12:06:34;;;;;;;12.57;2.10;;;18.80;99.90;;;;;;5030934;28;20109;-70
2021/12/30 12:09:07;;;;;;;11.38;2.17;;;18.80;99.90;;;;;;5031156;28;20064;-71
2021/12/30 12:11:47;;;;;;;10.93;2.17;;;18.80;99.90;;;;;;5030848;28;20250;-69
2021/12/30 12:14:26;;;;;;;10.98;2.10;;;18.80;99.90;;;;;;5031344;28;20075;-69
2021/12/30 12:17:00;;;;;;;14.82;2.15;;;18.80;99.90;;;;;;5031320;28;20017;-69
2021/12/30 12:19:45;;;;;;;12.07;2.47;;;18.80;99.90;;;;;;5031380;28;20037;-70
2021/12/30 12:22:28;;;;;;;9.93;1.98;;;18.80;99.90;;;;;;5031266;28;20474;-71
2021/12/30 12:25:14;;;;;;;10.60;2.03;;;18.70;99.90;;;;;;5031473;28;20026;-71
2021/12/30 12:27:52;;;;;;;14.38;2.42;;;18.80;99.90;;;;;;5031560;28;20109;-70
2021/12/30 12:30:33;;;;;;;14.18;2.38;;;18.70;99.90;;;;;;5031056;28;20069;-72
2021/12/30 12:33:19;;;;;;;11.52;2.05;;;18.90;99.90;;;;;;5016825;28;20026;-70
2021/12/30 12:35:45;;;;;;;9.25;1.95;;;19.00;99.90;;;;;;5035102;28;20359;-71
2021/12/30 12:38:12;;;;;;;9.10;1.88;;;19.10;99.90;;;;;;5035136;28;20032;-72
2021/12/30 12:40:52;;;;;;;10.98;2.10;;;19.00;99.90;;;;;;5034724;28;20022;-70
2021/12/30 12:43:27;;;;;;;9.68;2.10;;;19.00;99.90;;;;;;5035170;28;20128;-72
2021/12/30 12:45:56;;;;;;;11.32;2.17;;;19.10;99.90;;;;;;5034824;28;20104;-71
2021/12/30 12:48:25;;;;;;;11.32;2.35;;;19.20;99.90;;;;;;5034704;28;20112;-71
2021/12/30 12:51:07;;;;;;;16.38;2.25;;;19.30;99.90;;;;;;5034416;28;20079;-70